Time;durP1;ratioP1;P1;durP2;ratioP2;P2;SDS_P1;SDS_P2;PMS_P1;PMS_P2;Temp;Humidity;BMP_temperature;BMP_pressure;BME280_temperature;BME280_humidity;BME280_pressure;Samples;Min_cycle;Max_cycle;Signal;HPM_P1;HPM_P2
2021/08/31 00:02:06;;;;;;;28.33;19.60;;;17.30;86.30;;;;;;6250051;28;20576;-77
2021/08/31 00:05:09;;;;;;;31.08;20.98;;;17.30;86.10;;;;;;6249185;28;20895;-76
2021/08/31 00:08:11;;;;;;;43.40;23.02;;;17.20;86.30;;;;;;6249508;28;20446;-76
2021/08/31 00:11:14;;;;;;;37.53;21.90;;;17.10;86.50;;;;;;6248965;28;20488;-76
2021/08/31 00:14:16;;;;;;;31.20;19.02;;;17.40;86.80;;;;;;6249872;28;20438;-76
2021/08/31 00:17:18;;;;;;;31.90;21.00;;;17.10;86.70;;;;;;6249092;28;20442;-76
2021/08/31 00:20:20;;;;;;;33.00;20.92;;;17.10;86.40;;;;;;6249262;28;20464;-76
2021/08/31 00:23:22;;;;;;;40.00;23.00;;;17.00;86.30;;;;;;6248926;28;20420;-76
2021/08/31 00:26:25;;;;;;;33.42;21.08;;;17.00;86.60;;;;;;6249142;28;20482;-76
2021/08/31 00:29:27;;;;;;;35.33;20.43;;;17.10;87.00;;;;;;6248839;28;20452;-76
2021/08/31 00:32:28;;;;;;;35.50;20.83;;;17.00;86.80;;;;;;6248697;28;20498;-76
2021/08/31 00:35:30;;;;;;;35.38;20.25;;;17.00;86.70;;;;;;6248714;28;20489;-76
2021/08/31 00:38:32;;;;;;;35.33;21.20;;;17.00;85.80;;;;;;6268131;22;20950;-77
2021/08/31 00:41:36;;;;;;;31.88;21.17;;;17.00;85.90;;;;;;6255338;28;20458;-77
2021/08/31 00:44:38;;;;;;;40.83;22.45;;;17.00;85.90;;;;;;6255128;28;20507;-76
2021/08/31 00:47:40;;;;;;;33.08;20.17;;;17.00;86.30;;;;;;6255873;28;20423;-78
2021/08/31 00:50:42;;;;;;;35.27;20.47;;;17.00;86.30;;;;;;6255686;28;20477;-78
2021/08/31 00:53:44;;;;;;;34.08;20.75;;;17.00;86.40;;;;;;6255653;28;20438;-78
2021/08/31 00:56:49;;;;;;;36.72;21.35;;;16.90;86.40;;;;;;6255120;28;20469;-78
2021/08/31 00:59:51;;;;;;;35.38;20.95;;;17.00;86.40;;;;;;6253454;28;20987;-78
2021/08/31 01:02:53;;;;;;;39.92;23.30;;;16.90;86.50;;;;;;6255282;28;20422;-78
2021/08/31 01:05:56;;;;;;;36.05;22.35;;;17.50;87.00;;;;;;6255103;28;20483;-76
2021/08/31 01:08:59;;;;;;;40.78;23.30;;;16.70;86.70;;;;;;6254783;28;20509;-78
2021/08/31 01:12:02;;;;;;;33.65;21.52;;;16.70;86.90;;;;;;6254924;28;20581;-78
2021/08/31 01:15:04;;;;;;;35.60;21.77;;;16.60;87.10;;;;;;6253496;28;20943;-78
2021/08/31 01:18:19;;;;;;;36.55;22.13;;;16.60;87.30;;;;;;6255220;28;20517;-78
2021/08/31 01:21:21;;;;;;;35.42;21.40;;;16.50;87.20;;;;;;6254044;28;20844;-78
2021/08/31 01:24:23;;;;;;;41.72;22.65;;;16.50;87.30;;;;;;6254745;28;20421;-78
2021/08/31 01:27:27;;;;;;;40.20;23.17;;;16.60;87.20;;;;;;6259667;28;20415;-77
2021/08/31 01:30:29;;;;;;;35.58;20.88;;;16.70;87.10;;;;;;6266318;28;20523;-76
2021/08/31 01:33:33;;;;;;;33.75;18.90;;;16.60;87.00;;;;;;6254362;28;20506;-78
2021/08/31 01:36:36;;;;;;;29.95;17.92;;;16.90;87.30;;;;;;6252082;28;20915;-78
2021/08/31 01:39:38;;;;;;;26.63;18.55;;;16.70;86.80;;;;;;6252493;28;20450;-78
2021/08/31 01:42:42;;;;;;;27.60;18.80;;;16.70;86.80;;;;;;6252281;28;20836;-78
2021/08/31 01:45:44;;;;;;;28.87;18.77;;;16.70;86.80;;;;;;6252872;28;20479;-78
2021/08/31 01:48:46;;;;;;;27.48;17.58;;;16.80;87.20;;;;;;6252128;28;20525;-78
2021/08/31 01:51:48;;;;;;;27.55;17.83;;;16.70;86.50;;;;;;6252353;28;20812;-78
2021/08/31 01:54:49;;;;;;;23.92;17.23;;;16.60;86.60;;;;;;6251529;28;20997;-78
2021/08/31 01:57:53;;;;;;;31.77;18.23;;;16.70;86.70;;;;;;6252421;28;20434;-77
2021/08/31 02:00:55;;;;;;;31.92;19.17;;;16.60;86.40;;;;;;6251789;28;20590;-79
2021/08/31 02:03:56;;;;;;;28.10;17.70;;;16.50;86.80;;;;;;6252574;28;20489;-78
2021/08/31 02:06:58;;;;;;;26.17;17.05;;;17.10;87.30;;;;;;6252193;28;20484;-78
2021/08/31 02:10:00;;;;;;;30.35;19.45;;;16.50;86.90;;;;;;6253497;28;20437;-78
2021/08/31 02:13:04;;;;;;;34.10;19.15;;;16.40;87.50;;;;;;6252738;28;20421;-77
2021/08/31 02:16:08;;;;;;;28.63;17.58;;;16.60;87.10;;;;;;6252274;28;20527;-78
2021/08/31 02:19:10;;;;;;;28.23;17.20;;;16.50;87.00;;;;;;6252793;28;20460;-78
2021/08/31 02:22:12;;;;;;;27.23;17.63;;;16.40;86.80;;;;;;6251951;28;20915;-78
2021/08/31 02:25:14;;;;;;;36.50;18.30;;;16.40;86.90;;;;;;6251414;28;20463;-78
2021/08/31 02:28:17;;;;;;;26.30;18.95;;;16.30;87.20;;;;;;6251760;28;20934;-78
2021/08/31 02:31:19;;;;;;;26.63;17.75;;;16.20;86.90;;;;;;6252026;28;21065;-77
2021/08/31 02:34:20;;;;;;;28.53;17.17;;;16.20;86.80;;;;;;6252659;28;20496;-79
2021/08/31 02:37:22;;;;;;;29.25;18.35;;;16.20;87.30;;;;;;6252632;28;20493;-78
2021/08/31 02:40:24;;;;;;;27.33;18.25;;;16.10;87.10;;;;;;6252208;28;20493;-78
2021/08/31 02:43:27;;;;;;;23.13;15.52;;;16.20;87.50;;;;;;6251406;28;20828;-78
2021/08/31 02:46:29;;;;;;;25.63;15.87;;;16.10;87.10;;;;;;6252111;28;20466;-78
2021/08/31 02:49:31;;;;;;;27.52;15.85;;;16.20;87.10;;;;;;6251831;28;20502;-78
2021/08/31 02:52:33;;;;;;;25.00;15.50;;;16.30;87.00;;;;;;6252253;28;20470;-78
2021/08/31 02:55:35;;;;;;;25.02;15.68;;;16.10;86.80;;;;;;6251940;28;20890;-78
2021/08/31 02:58:38;;;;;;;22.63;16.25;;;16.10;87.20;;;;;;6252018;28;20434;-78
2021/08/31 03:02:04;;;;;;;27.70;16.70;;;16.10;87.80;;;;;;6252066;28;20942;-77
2021/08/31 03:05:02;;;;;;;22.95;15.57;;;16.10;86.80;;;;;;6250928;28;20527;-78
2021/08/31 03:08:04;;;;;;;30.52;17.70;;;16.00;87.00;;;;;;6249921;28;20415;-78
2021/08/31 03:11:06;;;;;;;30.13;18.08;;;15.90;86.90;;;;;;6251997;28;20413;-78
2021/08/31 03:14:09;;;;;;;34.28;17.13;;;15.90;87.10;;;;;;6250573;28;20482;-78
2021/08/31 03:17:11;;;;;;;27.95;16.80;;;15.80;87.20;;;;;;6250997;28;20494;-78
2021/08/31 03:20:13;;;;;;;28.70;17.23;;;15.70;86.80;;;;;;6250907;28;20501;-77
2021/08/31 03:23:14;;;;;;;31.17;19.33;;;15.90;86.90;;;;;;6249646;28;20816;-78
2021/08/31 03:26:16;;;;;;;32.80;19.10;;;15.60;87.40;;;;;;6249935;28;20442;-78
2021/08/31 03:29:20;;;;;;;42.25;22.05;;;16.10;87.00;;;;;;6249896;28;20513;-78
2021/08/31 03:32:22;;;;;;;34.22;19.33;;;15.70;87.10;;;;;;6249494;28;20838;-78
2021/08/31 03:35:24;;;;;;;31.83;17.65;;;16.10;87.60;;;;;;6249941;28;20423;-77
2021/08/31 03:38:26;;;;;;;23.10;15.27;;;16.00;87.40;;;;;;6251114;28;20430;-78
2021/08/31 03:41:27;;;;;;;27.15;15.82;;;15.90;87.10;;;;;;6249750;28;21006;-77
2021/08/31 03:44:31;;;;;;;18.73;14.40;;;16.40;87.10;;;;;;6249823;28;21018;-78
2021/08/31 03:47:33;;;;;;;21.60;14.77;;;16.00;86.40;;;;;;6250342;28;20415;-78
2021/08/31 03:50:35;;;;;;;24.95;14.50;;;16.10;86.20;;;;;;6250557;28;20442;-79
2021/08/31 03:53:37;;;;;;;19.63;14.02;;;16.10;86.00;;;;;;6250146;28;20459;-78
2021/08/31 03:56:38;;;;;;;21.25;13.98;;;16.10;85.90;;;;;;6249901;28;20418;-77
2021/08/31 03:59:42;;;;;;;25.92;15.00;;;16.20;86.10;;;;;;6250326;28;20425;-77
2021/08/31 04:02:43;;;;;;;23.27;14.55;;;16.10;86.20;;;;;;6250298;28;20426;-78
2021/08/31 04:05:45;;;;;;;22.90;15.00;;;16.20;85.90;;;;;;6250545;28;20434;-78
2021/08/31 04:08:47;;;;;;;24.65;14.60;;;16.10;86.10;;;;;;6249869;28;20502;-78
2021/08/31 04:11:49;;;;;;;29.53;15.43;;;16.10;87.20;;;;;;6249024;28;20904;-77
2021/08/31 04:14:52;;;;;;;22.52;14.40;;;16.00;86.40;;;;;;6248861;28;20459;-77
2021/08/31 04:17:54;;;;;;;22.73;14.82;;;15.90;86.30;;;;;;6249578;28;20476;-78
2021/08/31 04:20:56;;;;;;;20.83;13.80;;;15.80;86.10;;;;;;6248894;28;20442;-78
2021/08/31 04:23:58;;;;;;;25.63;17.17;;;15.70;85.80;;;;;;6249272;28;20494;-77
2021/08/31 04:27:00;;;;;;;23.40;14.90;;;15.60;87.20;;;;;;6248073;28;20495;-77
2021/08/31 04:30:04;;;;;;;23.00;13.93;;;15.60;86.50;;;;;;6248056;28;20954;-77
2021/08/31 04:33:06;;;;;;;27.05;13.93;;;15.50;86.40;;;;;;6247681;28;20487;-77
2021/08/31 04:36:08;;;;;;;19.30;13.43;;;15.90;86.70;;;;;;6247335;28;20431;-77
2021/08/31 04:39:10;;;;;;;17.63;12.88;;;15.30;86.80;;;;;;6246460;28;20420;-77
2021/08/31 04:42:12;;;;;;;17.50;12.75;;;15.90;87.10;;;;;;6247776;28;21023;-77
2021/08/31 04:45:15;;;;;;;19.40;12.75;;;15.50;86.40;;;;;;6251098;28;20494;-78
2021/08/31 04:48:16;;;;;;;16.13;12.43;;;15.60;86.20;;;;;;6251853;28;20918;-77
2021/08/31 04:51:18;;;;;;;16.42;12.45;;;15.60;86.50;;;;;;6252685;28;20936;-77
2021/08/31 04:54:20;;;;;;;17.15;12.40;;;16.20;86.60;;;;;;6252715;28;20434;-77
2021/08/31 04:57:22;;;;;;;15.43;12.23;;;15.60;86.30;;;;;;6252092;28;20415;-77
2021/08/31 05:00:26;;;;;;;16.17;11.25;;;15.70;86.10;;;;;;6251810;28;20441;-78
2021/08/31 05:03:27;;;;;;;19.50;12.90;;;15.80;86.00;;;;;;6252565;28;20856;-77
2021/08/31 05:06:29;;;;;;;19.63;12.55;;;15.80;86.00;;;;;;6254606;28;20435;-76
2021/08/31 05:09:31;;;;;;;18.33;13.63;;;15.90;86.10;;;;;;6251726;28;20438;-77
2021/08/31 05:12:33;;;;;;;16.45;14.23;;;15.80;86.10;;;;;;6251284;28;20515;-77
2021/08/31 05:15:38;;;;;;;19.65;15.48;;;16.00;86.30;;;;;;6251162;28;20998;-78
2021/08/31 05:18:40;;;;;;;19.05;15.63;;;16.00;86.40;;;;;;6251177;28;20969;-77
2021/08/31 05:21:43;;;;;;;20.05;16.15;;;16.10;86.00;;;;;;6252041;28;20442;-77
2021/08/31 05:24:46;;;;;;;18.17;14.03;;;16.20;86.10;;;;;;6251359;28;20506;-77
2021/08/31 05:27:48;;;;;;;19.00;15.57;;;16.20;85.80;;;;;;6251015;28;20472;-77
2021/08/31 05:30:51;;;;;;;17.60;14.93;;;16.30;85.50;;;;;;6251135;28;20515;-78
2021/08/31 05:33:53;;;;;;;19.38;15.30;;;16.30;85.30;;;;;;6251425;28;20554;-77
2021/08/31 05:36:55;;;;;;;19.33;14.88;;;16.90;85.40;;;;;;6249972;28;20450;-77
2021/08/31 05:39:57;;;;;;;18.75;15.20;;;16.50;85.10;;;;;;6250573;28;20435;-77
2021/08/31 05:42:59;;;;;;;17.98;15.98;;;16.60;85.00;;;;;;6251737;28;20484;-78
2021/08/31 05:46:02;;;;;;;21.27;15.23;;;16.60;85.10;;;;;;6250706;28;20439;-77
2021/08/31 05:49:04;;;;;;;15.80;13.20;;;16.70;84.80;;;;;;6249767;28;20492;-77
2021/08/31 05:52:06;;;;;;;18.67;13.65;;;16.90;84.20;;;;;;6247245;28;20502;-77
2021/08/31 05:55:09;;;;;;;16.60;14.43;;;16.80;84.20;;;;;;6245672;28;20904;-78
2021/08/31 05:58:10;;;;;;;17.70;14.88;;;16.80;83.70;;;;;;6247336;28;20919;-78
2021/08/31 06:01:14;;;;;;;15.73;14.18;;;16.90;83.40;;;;;;6246652;28;20430;-77
2021/08/31 06:04:15;;;;;;;18.73;15.73;;;16.90;83.20;;;;;;6234032;28;20519;-78
2021/08/31 06:07:17;;;;;;;17.05;13.93;;;17.20;83.10;;;;;;6237210;28;20446;-78
2021/08/31 06:10:19;;;;;;;16.48;14.35;;;17.00;82.90;;;;;;6231083;28;20621;-77
2021/08/31 06:13:21;;;;;;;15.63;13.97;;;14.50;81.30;;;;;;6228066;28;20502;-78
2021/08/31 06:16:24;;;;;;;16.13;13.50;;;17.20;82.50;;;;;;6246157;28;20912;-78
2021/08/31 06:19:26;;;;;;;18.45;14.27;;;17.20;81.80;;;;;;6246291;28;20530;-77
2021/08/31 06:22:28;;;;;;;14.82;13.30;;;17.60;82.50;;;;;;6236139;28;20468;-78
2021/08/31 06:25:30;;;;;;;17.63;14.18;;;17.10;82.10;;;;;;6221603;28;20452;-78
2021/08/31 06:28:32;;;;;;;16.92;14.50;;;14.70;81.10;;;;;;6221715;28;21059;-78
2021/08/31 06:31:35;;;;;;;18.25;14.02;;;17.90;83.20;;;;;;6221736;28;20420;-77
2021/08/31 06:34:37;;;;;;;17.60;15.63;;;17.00;81.60;;;;;;6221323;28;20957;-77
2021/08/31 06:37:39;;;;;;;15.38;13.70;;;18.10;82.80;;;;;;6222200;28;20464;-78
2021/08/31 06:40:41;;;;;;;14.98;13.48;;;17.10;82.70;;;;;;6241518;28;20423;-78
2021/08/31 06:43:45;;;;;;;16.15;13.63;;;17.20;82.30;;;;;;6245818;28;20550;-78
2021/08/31 06:46:48;;;;;;;15.88;13.90;;;17.30;81.90;;;;;;6245462;28;20471;-78
2021/08/31 06:49:51;;;;;;;15.68;13.27;;;17.40;82.90;;;;;;6246408;28;20554;-78
2021/08/31 06:52:53;;;;;;;13.40;11.67;;;17.60;82.00;;;;;;6245989;28;21069;-78
2021/08/31 06:55:55;;;;;;;14.50;11.68;;;18.00;81.20;;;;;;6245222;28;20922;-78
2021/08/31 06:58:56;;;;;;;14.45;12.00;;;18.00;79.50;;;;;;6245595;28;20486;-77
2021/08/31 07:02:00;;;;;;;14.70;12.47;;;18.10;79.00;;;;;;6244029;28;20530;-76
2021/08/31 07:05:01;;;;;;;14.40;11.73;;;18.20;78.70;;;;;;6241412;28;20533;-77
2021/08/31 07:08:03;;;;;;;15.45;11.25;;;18.10;79.10;;;;;;6246907;28;20422;-77
2021/08/31 07:11:05;;;;;;;15.65;11.15;;;18.40;79.00;;;;;;6245296;28;20414;-77
2021/08/31 07:14:07;;;;;;;11.55;10.18;;;18.60;78.30;;;;;;6231297;28;20429;-76
2021/08/31 07:17:10;;;;;;;11.00;9.88;;;18.70;76.30;;;;;;6220330;28;20999;-77
2021/08/31 07:20:13;;;;;;;14.30;10.77;;;18.90;76.00;;;;;;6220578;28;20510;-77
2021/08/31 07:23:15;;;;;;;12.30;10.40;;;19.10;75.90;;;;;;6221010;28;20496;-78
2021/08/31 07:26:18;;;;;;;14.13;9.40;;;19.40;75.60;;;;;;6220645;28;20509;-78
2021/08/31 07:29:19;;;;;;;10.88;9.48;;;19.10;74.30;;;;;;6220617;28;20492;-77
2021/08/31 07:32:22;;;;;;;10.55;9.18;;;19.40;74.00;;;;;;6233257;28;20427;-76
2021/08/31 07:35:25;;;;;;;10.43;9.35;;;19.60;73.20;;;;;;6223402;28;20428;-77
2021/08/31 07:38:28;;;;;;;14.20;9.82;;;19.70;72.60;;;;;;6222825;28;20595;-80
2021/08/31 07:41:30;;;;;;;13.37;10.03;;;19.40;73.40;;;;;;6203530;28;20471;-77
2021/08/31 07:44:31;;;;;;;12.07;8.65;;;19.70;73.60;;;;;;6220260;28;20511;-77
2021/08/31 07:47:35;;;;;;;10.88;9.15;;;19.40;73.40;;;;;;6220665;28;20424;-77
2021/08/31 07:50:37;;;;;;;13.65;9.15;;;19.40;73.40;;;;;;6220366;28;20929;-76
2021/08/31 07:53:39;;;;;;;12.35;8.55;;;19.20;74.30;;;;;;6220796;28;20515;-77
2021/08/31 07:56:41;;;;;;;13.02;10.38;;;19.40;75.30;;;;;;6220154;28;20448;-77
2021/08/31 07:59:43;;;;;;;9.85;8.45;;;19.60;72.60;;;;;;6220227;28;20921;-77
2021/08/31 08:02:47;;;;;;;8.70;7.78;;;20.10;72.10;;;;;;6228183;28;20930;-77
2021/08/31 08:05:49;;;;;;;11.88;9.02;;;20.00;69.70;;;;;;6220490;28;20552;-78
2021/08/31 08:08:51;;;;;;;9.23;8.10;;;20.60;71.80;;;;;;6220144;28;20420;-78
2021/08/31 08:11:53;;;;;;;11.40;8.60;;;20.00;71.00;;;;;;6220167;28;20901;-77
2021/08/31 08:14:54;;;;;;;11.20;8.30;;;19.70;71.10;;;;;;6240750;28;20434;-78
2021/08/31 08:17:59;;;;;;;9.82;8.75;;;19.90;70.60;;;;;;6245122;28;20518;-77
2021/08/31 08:21:01;;;;;;;9.45;8.43;;;20.20;70.90;;;;;;6249372;28;20431;-78
2021/08/31 08:24:03;;;;;;;10.48;8.50;;;20.40;68.20;;;;;;6248846;28;20469;-77
2021/08/31 08:27:06;;;;;;;8.50;7.57;;;20.50;68.50;;;;;;6249129;28;20423;-77
2021/08/31 08:30:08;;;;;;;12.60;8.43;;;20.80;68.30;;;;;;6249736;28;20542;-78
2021/08/31 08:33:11;;;;;;;9.48;7.85;;;21.10;67.80;;;;;;6240994;28;20918;-77
2021/08/31 08:36:13;;;;;;;10.35;8.55;;;20.80;67.90;;;;;;6250355;28;20982;-77
2021/08/31 08:39:15;;;;;;;8.05;7.25;;;20.70;67.20;;;;;;6250948;28;20419;-77
2021/08/31 08:42:17;;;;;;;10.13;8.02;;;20.40;68.90;;;;;;6249555;28;20462;-77
2021/08/31 08:45:19;;;;;;;10.20;7.85;;;19.20;68.70;;;;;;6248712;28;20502;-76
2021/08/31 08:48:24;;;;;;;9.50;8.55;;;20.10;69.80;;;;;;6250352;28;20964;-76
2021/08/31 08:51:26;;;;;;;8.77;7.88;;;19.80;71.00;;;;;;6249104;28;20453;-77
2021/08/31 08:54:28;;;;;;;13.85;9.30;;;19.80;71.80;;;;;;6249384;28;20430;-78
2021/08/31 08:57:30;;;;;;;9.27;8.03;;;19.90;70.10;;;;;;6248323;28;20520;-78
2021/08/31 09:00:54;;;;;;;9.88;8.88;;;19.90;70.30;;;;;;6248913;28;20502;-79
2021/08/31 09:03:57;;;;;;;9.30;8.32;;;19.80;70.60;;;;;;6233443;28;20415;-77
2021/08/31 09:07:16;;;;;;;10.57;8.20;;;19.80;72.30;;;;;;6248325;28;20489;-77
2021/08/31 09:10:20;;;;;;;8.57;7.68;;;20.10;71.60;;;;;;6248578;28;20453;-78
2021/08/31 09:13:22;;;;;;;9.38;7.88;;;20.60;70.00;;;;;;6239443;28;20412;-77
2021/08/31 09:16:27;;;;;;;8.63;7.32;;;20.90;67.60;;;;;;6223217;28;20502;-77
2021/08/31 09:19:31;;;;;;;11.80;7.93;;;20.90;67.90;;;;;;6224030;28;20421;-78
2021/08/31 09:22:34;;;;;;;8.40;7.55;;;21.40;67.70;;;;;;6223651;28;20472;-78
2021/08/31 09:25:37;;;;;;;8.60;7.72;;;21.20;66.30;;;;;;6226816;28;20431;-78
2021/08/31 09:28:40;;;;;;;8.47;7.53;;;21.30;65.50;;;;;;6225501;28;20417;-78
2021/08/31 09:31:50;;;;;;;8.73;7.10;;;21.40;65.10;;;;;;6234126;28;20442;-77
2021/08/31 09:34:54;;;;;;;9.55;7.75;;;21.70;64.00;;;;;;6237576;28;20924;-78
2021/08/31 09:37:59;;;;;;;10.10;8.57;;;21.90;64.50;;;;;;6253098;28;20459;-79
2021/08/31 09:41:00;;;;;;;9.20;7.78;;;21.60;64.60;;;;;;6254671;28;20816;-77
2021/08/31 09:44:06;;;;;;;8.65;7.65;;;21.40;64.20;;;;;;6250485;28;20455;-78
2021/08/31 09:47:07;;;;;;;8.80;7.55;;;21.20;65.70;;;;;;6248006;28;20415;-77
2021/08/31 09:50:24;;;;;;;9.10;8.27;;;21.10;66.40;;;;;;6250175;28;20980;-77
2021/08/31 09:53:28;;;;;;;9.45;8.10;;;21.10;66.10;;;;;;6248187;28;20486;-78
2021/08/31 09:56:30;;;;;;;12.13;8.07;;;21.20;66.60;;;;;;6246802;28;20843;-78
2021/08/31 09:59:32;;;;;;;8.88;8.05;;;21.50;64.80;;;;;;6247550;28;20506;-77
2021/08/31 10:02:34;;;;;;;8.45;6.57;;;21.90;63.10;;;;;;6240935;28;20459;-77
2021/08/31 10:05:39;;;;;;;8.88;6.88;;;22.20;62.40;;;;;;6248563;28;20912;-77
2021/08/31 10:08:41;;;;;;;9.25;6.13;;;22.50;61.60;;;;;;6251815;28;20422;-77
2021/08/31 10:11:43;;;;;;;8.38;6.38;;;22.90;61.20;;;;;;6246736;28;20911;-79
2021/08/31 10:14:45;;;;;;;8.93;7.22;;;23.00;60.00;;;;;;6226798;28;21177;-77
2021/08/31 10:17:50;;;;;;;8.15;7.40;;;23.30;57.60;;;;;;6222720;28;20471;-78
2021/08/31 10:20:56;;;;;;;10.40;6.72;;;23.20;56.80;;;;;;6222521;28;20894;-78
2021/08/31 10:23:59;;;;;;;8.70;6.90;;;23.00;57.00;;;;;;6232412;28;20430;-78
2021/08/31 10:27:32;;;;;;;9.77;6.70;;;22.90;58.20;;;;;;6258172;28;20850;-75
2021/08/31 10:30:37;;;;;;;8.40;6.80;;;23.10;58.60;;;;;;6271261;28;20429;-78
2021/08/31 10:33:40;;;;;;;8.70;6.95;;;23.20;57.60;;;;;;6237998;28;20414;-78
2021/08/31 10:36:43;;;;;;;7.78;7.05;;;23.10;58.20;;;;;;6246182;28;20787;-77
2021/08/31 10:39:50;;;;;;;7.18;6.28;;;23.20;58.40;;;;;;6247270;28;20857;-76
2021/08/31 10:42:52;;;;;;;7.80;6.07;;;23.00;58.50;;;;;;6245233;28;20474;-79
2021/08/31 10:45:56;;;;;;;6.43;5.53;;;23.10;57.20;;;;;;6221523;28;20519;-77
2021/08/31 10:49:01;;;;;;;7.50;5.77;;;23.20;57.50;;;;;;6220661;28;20510;-77
2021/08/31 10:52:08;;;;;;;7.67;6.20;;;23.20;57.50;;;;;;6220867;28;20413;-76
2021/08/31 10:55:38;;;;;;;7.60;5.82;;;23.40;56.10;;;;;;6220136;28;20499;-78
2021/08/31 10:58:48;;;;;;;7.57;6.30;;;23.60;56.60;;;;;;6220250;28;20593;-77
2021/08/31 11:01:50;;;;;;;7.93;6.23;;;23.80;54.80;;;;;;6229046;28;20590;-76
2021/08/31 11:05:25;;;;;;;8.63;6.30;;;23.70;56.30;;;;;;6227197;28;20563;-77
2021/08/31 11:08:30;;;;;;;7.30;5.20;;;23.70;55.50;;;;;;6220059;28;20424;-77
2021/08/31 11:11:32;;;;;;;6.03;5.43;;;23.80;55.90;;;;;;6223124;28;20583;-77
2021/08/31 11:14:49;;;;;;;6.03;5.28;;;23.80;54.80;;;;;;6220240;28;20966;-78
2021/08/31 11:17:51;;;;;;;6.03;5.53;;;23.70;54.50;;;;;;6220176;28;20416;-77
2021/08/31 11:20:53;;;;;;;9.48;5.70;;;23.80;54.40;;;;;;6220069;28;20416;-77
2021/08/31 11:24:07;;;;;;;6.30;5.32;;;23.80;54.60;;;;;;6219562;28;20451;-77
2021/08/31 11:27:08;;;;;;;8.25;5.80;;;23.80;55.30;;;;;;6233142;28;20786;-78
2021/08/31 11:30:11;;;;;;;10.60;6.63;;;24.00;55.60;;;;;;6244475;28;20435;-78
2021/08/31 11:33:19;;;;;;;7.53;6.13;;;24.30;54.10;;;;;;6235862;28;20601;-77
2021/08/31 11:36:23;;;;;;;7.13;5.38;;;24.70;53.40;;;;;;6243251;28;20857;-77
2021/08/31 11:39:26;;;;;;;7.28;5.28;;;25.10;51.10;;;;;;6243944;28;20804;-77
2021/08/31 11:42:50;;;;;;;5.93;5.33;;;25.10;51.60;;;;;;6244650;28;20431;-77
2021/08/31 11:45:57;;;;;;;8.07;5.47;;;25.10;50.80;;;;;;6244055;28;20418;-78
2021/08/31 11:49:10;;;;;;;6.47;4.97;;;24.70;51.70;;;;;;6243854;28;20832;-79
2021/08/31 11:52:16;;;;;;;5.70;5.07;;;24.60;52.40;;;;;;6244570;28;20868;-77
2021/08/31 11:55:28;;;;;;;6.07;4.90;;;24.60;52.90;;;;;;6249146;28;20411;-77
2021/08/31 11:58:31;;;;;;;7.20;5.20;;;24.80;53.30;;;;;;6249302;28;20434;-78
2021/08/31 12:01:37;;;;;;;6.47;5.32;;;24.70;53.00;;;;;;6248242;28;21035;-77
2021/08/31 12:04:39;;;;;;;7.30;5.70;;;24.50;53.40;;;;;;6228748;28;20420;-76
2021/08/31 12:07:42;;;;;;;6.53;5.07;;;24.30;54.10;;;;;;6235416;28;20492;-76
2021/08/31 12:10:46;;;;;;;7.60;5.47;;;24.20;54.90;;;;;;6226798;28;20435;-78
2021/08/31 12:13:49;;;;;;;6.20;5.32;;;24.30;54.00;;;;;;6225019;28;20428;-77
2021/08/31 12:16:51;;;;;;;5.78;5.13;;;24.20;54.00;;;;;;6224165;28;20503;-78
2021/08/31 12:20:04;;;;;;;6.28;5.68;;;24.10;53.80;;;;;;6224093;28;20417;-77
2021/08/31 12:23:06;;;;;;;7.33;5.30;;;24.10;54.00;;;;;;6224465;28;20500;-78
2021/08/31 12:26:10;;;;;;;6.13;5.38;;;24.10;53.30;;;;;;6230589;28;20847;-79
2021/08/31 12:29:12;;;;;;;9.85;5.35;;;24.30;54.00;;;;;;6227181;28;20416;-77
2021/08/31 12:32:14;;;;;;;8.32;4.97;;;24.60;52.10;;;;;;6240174;28;20421;-78
2021/08/31 12:35:24;;;;;;;7.32;5.32;;;24.60;52.20;;;;;;6243925;28;21100;-76
2021/08/31 12:38:32;;;;;;;6.25;4.82;;;24.80;51.20;;;;;;6241778;28;20538;-79
2021/08/31 12:41:45;;;;;;;5.78;4.35;;;25.40;50.90;;;;;;6230366;28;20851;-79
2021/08/31 12:44:50;;;;;;;6.68;4.63;;;25.60;49.10;;;;;;6229666;28;20553;-78
2021/08/31 12:47:54;;;;;;;8.35;5.00;;;25.50;50.50;;;;;;6229684;28;20423;-79
2021/08/31 12:51:04;;;;;;;4.82;4.35;;;25.50;47.40;;;;;;6230346;28;20471;-79
2021/08/31 12:54:06;;;;;;;6.18;4.70;;;25.40;47.40;;;;;;6230794;28;20555;-79
2021/08/31 12:57:10;;;;;;;4.75;4.15;;;25.70;47.90;;;;;;6229141;28;20517;-79
2021/08/31 13:00:22;;;;;;;4.47;3.90;;;26.30;46.60;;;;;;6228985;28;20408;-80
2021/08/31 13:03:30;;;;;;;4.97;4.47;;;26.60;46.50;;;;;;6243831;28;20425;-80
2021/08/31 13:06:36;;;;;;;5.93;4.00;;;27.10;44.80;;;;;;6229586;28;20444;-77
2021/08/31 13:09:43;;;;;;;5.53;4.60;;;27.20;44.60;;;;;;6229503;28;20500;-79
2021/08/31 13:12:47;;;;;;;5.60;4.28;;;27.00;45.20;;;;;;6228723;28;20503;-80
2021/08/31 13:15:49;;;;;;;6.10;4.10;;;26.50;44.70;;;;;;6228245;28;20435;-79
2021/08/31 13:18:50;;;;;;;5.97;4.55;;;26.30;45.50;;;;;;6228608;28;20432;-79
2021/08/31 13:21:53;;;;;;;5.18;4.68;;;26.00;47.10;;;;;;6228478;28;20498;-78
2021/08/31 13:24:55;;;;;;;4.53;4.13;;;25.70;47.10;;;;;;6227481;28;20495;-79
2021/08/31 13:27:58;;;;;;;5.10;4.60;;;25.30;48.10;;;;;;6236728;28;20436;-77
2021/08/31 13:31:00;;;;;;;6.00;4.63;;;25.20;50.90;;;;;;6230077;28;20964;-80
2021/08/31 13:34:02;;;;;;;6.47;4.93;;;25.00;48.60;;;;;;6244953;28;20430;-80
2021/08/31 13:37:04;;;;;;;5.20;4.45;;;24.60;49.70;;;;;;6252382;28;20534;-81
2021/08/31 13:40:07;;;;;;;4.65;4.22;;;24.20;51.40;;;;;;6253200;28;20427;-81
2021/08/31 13:43:10;;;;;;;6.15;4.88;;;24.20;50.60;;;;;;6252871;28;20508;-80
2021/08/31 13:46:12;;;;;;;4.63;4.13;;;24.10;52.20;;;;;;6253351;28;20477;-80
2021/08/31 13:49:14;;;;;;;4.25;3.85;;;24.20;50.80;;;;;;6252709;28;20482;-81
2021/08/31 13:52:16;;;;;;;5.70;4.20;;;24.20;51.00;;;;;;6252354;28;20504;-79
2021/08/31 13:55:18;;;;;;;6.15;4.53;;;24.40;51.20;;;;;;6251737;28;20431;-81
2021/08/31 13:58:22;;;;;;;5.05;4.32;;;24.50;49.80;;;;;;6252476;28;20454;-79
2021/08/31 14:01:24;;;;;;;4.47;4.07;;;24.60;49.80;;;;;;6252127;28;20516;-79
2021/08/31 14:04:26;;;;;;;5.30;4.30;;;24.60;49.20;;;;;;6244038;28;20425;-79
2021/08/31 14:07:28;;;;;;;5.00;4.55;;;24.50;50.60;;;;;;6251672;28;20415;-77
2021/08/31 14:10:29;;;;;;;4.82;4.32;;;24.50;50.90;;;;;;6251566;28;20461;-79
2021/08/31 14:13:33;;;;;;;5.33;4.40;;;24.40;49.90;;;;;;6251274;28;20888;-79
2021/08/31 14:16:35;;;;;;;5.85;4.63;;;24.30;51.80;;;;;;6250223;28;20895;-80
2021/08/31 14:19:38;;;;;;;4.95;4.15;;;24.50;49.80;;;;;;6252111;28;20438;-77
2021/08/31 14:22:40;;;;;;;6.20;4.50;;;24.80;49.20;;;;;;6251506;28;20435;-80
2021/08/31 14:25:41;;;;;;;5.53;4.50;;;25.10;49.40;;;;;;6251541;28;20478;-78
2021/08/31 14:28:45;;;;;;;5.73;4.20;;;25.30;47.50;;;;;;6244025;28;20877;-79
2021/08/31 14:31:46;;;;;;;5.32;4.22;;;25.30;48.00;;;;;;6248576;28;20550;-78
2021/08/31 14:34:48;;;;;;;5.70;4.13;;;24.90;48.50;;;;;;6242088;28;20709;-79
2021/08/31 14:37:50;;;;;;;5.20;4.70;;;24.60;49.30;;;;;;6251295;28;20518;-80
2021/08/31 14:40:52;;;;;;;5.35;4.85;;;24.40;50.40;;;;;;6251250;28;20462;-81
2021/08/31 14:43:55;;;;;;;5.32;3.67;;;24.30;50.20;;;;;;6250437;28;20847;-80
2021/08/31 14:46:57;;;;;;;9.90;4.70;;;24.20;51.00;;;;;;6250766;28;20427;-80
2021/08/31 14:49:59;;;;;;;4.50;3.97;;;24.10;50.50;;;;;;6250397;28;20502;-80
2021/08/31 14:53:00;;;;;;;4.60;4.20;;;23.90;51.40;;;;;;6250885;28;20529;-80
2021/08/31 14:56:02;;;;;;;5.03;4.53;;;23.80;51.80;;;;;;6250246;28;20527;-80
2021/08/31 14:59:05;;;;;;;6.00;4.30;;;23.60;52.70;;;;;;6251435;28;20909;-81
2021/08/31 15:02:07;;;;;;;5.10;4.60;;;23.60;52.40;;;;;;6248520;28;20438;-80
2021/08/31 15:05:10;;;;;;;5.00;4.00;;;23.60;52.80;;;;;;6244583;28;20454;-79
2021/08/31 15:08:11;;;;;;;7.38;4.20;;;23.50;52.10;;;;;;6250794;28;20478;-80
2021/08/31 15:11:13;;;;;;;4.88;4.38;;;23.40;53.30;;;;;;6250483;28;20461;-80
2021/08/31 15:14:18;;;;;;;4.55;4.00;;;23.40;54.30;;;;;;6252457;28;20514;-80
2021/08/31 15:17:20;;;;;;;4.60;4.10;;;23.40;54.10;;;;;;6251924;28;20810;-80
2021/08/31 15:20:23;;;;;;;6.10;5.07;;;23.60;55.80;;;;;;6251146;28;20415;-80
2021/08/31 15:23:25;;;;;;;5.50;4.77;;;23.80;53.40;;;;;;6250731;28;20550;-80
2021/08/31 15:26:27;;;;;;;5.47;4.97;;;24.00;52.30;;;;;;6250548;28;20466;-80
2021/08/31 15:29:31;;;;;;;5.10;4.60;;;23.90;52.80;;;;;;6243047;28;20524;-80
2021/08/31 15:32:33;;;;;;;5.05;4.55;;;23.90;52.90;;;;;;6238627;28;20467;-79
2021/08/31 15:35:35;;;;;;;4.60;3.97;;;23.90;52.10;;;;;;6246909;28;20443;-79
2021/08/31 15:38:37;;;;;;;4.40;4.00;;;23.80;52.20;;;;;;6259946;28;20517;-80
2021/08/31 15:41:39;;;;;;;9.20;4.60;;;23.70;52.90;;;;;;6252032;28;20434;-81